Time;durP1;ratioP1;P1;durP2;ratioP2;P2;SDS_P1;SDS_P2;PMS_P1;PMS_P2;Temp;Humidity;BMP_temperature;BMP_pressure;BME280_temperature;BME280_humidity;BME280_pressure;Samples;Min_cycle;Max_cycle;Signal;HPM_P1;HPM_P2
2022/04/06 00:02:02;;;;;;;1.47;1.10;;;10.60;98.00;;;;;;6121495;23;20436;-66
2022/04/06 00:04:28;;;;;;;1.70;1.27;;;10.50;98.00;;;;;;6121729;23;20409;-66
2022/04/06 00:06:55;;;;;;;1.57;1.27;;;10.60;98.00;;;;;;6120977;23;20448;-67
2022/04/06 00:09:22;;;;;;;1.50;1.23;;;10.60;98.00;;;;;;6121238;23;20423;-67
2022/04/06 00:11:49;;;;;;;1.80;1.70;;;10.60;98.00;;;;;;6121441;23;20401;-67
2022/04/06 00:14:17;;;;;;;1.30;1.30;;;10.60;98.00;;;;;;6121050;23;20414;-66
2022/04/06 00:16:45;;;;;;;1.57;1.43;;;10.50;98.00;;;;;;6121206;23;20424;-67
2022/04/06 00:19:13;;;;;;;1.20;1.17;;;10.60;98.00;;;;;;6121319;23;20413;-67
2022/04/06 00:21:40;;;;;;;1.40;1.30;;;10.60;98.00;;;;;;6121544;23;20736;-67
2022/04/06 00:24:08;;;;;;;2.53;1.60;;;10.70;98.00;;;;;;6121241;23;20420;-66
2022/04/06 00:26:36;;;;;;;2.13;1.40;;;10.60;98.00;;;;;;6121757;23;20486;-67
2022/04/06 00:29:04;;;;;;;1.20;1.00;;;10.50;98.00;;;;;;6120647;23;20483;-66
2022/04/06 00:31:32;;;;;;;1.20;1.20;;;10.50;98.00;;;;;;6121624;23;20405;-66
2022/04/06 00:33:59;;;;;;;1.40;1.10;;;10.40;98.00;;;;;;6121210;23;20467;-66
2022/04/06 00:36:27;;;;;;;1.67;1.30;;;10.40;98.00;;;;;;6121134;23;20897;-67
2022/04/06 00:38:55;;;;;;;1.20;1.00;;;10.40;98.00;;;;;;6121422;23;20402;-67
2022/04/06 00:41:23;;;;;;;1.47;1.30;;;10.50;98.00;;;;;;6121522;23;20523;-66
2022/04/06 00:44:12;;;;;;;1.93;1.40;;;10.50;98.00;;;;;;6121504;23;20433;-67
2022/04/06 00:46:41;;;;;;;1.20;1.10;;;10.50;98.00;;;;;;6121747;23;20406;-66
2022/04/06 00:49:13;;;;;;;2.07;1.57;;;10.50;98.00;;;;;;6121696;23;20452;-66
2022/04/06 00:51:45;;;;;;;1.30;1.20;;;10.50;98.00;;;;;;6120968;23;20826;-67
2022/04/06 00:54:14;;;;;;;1.30;1.20;;;10.50;98.00;;;;;;6121306;23;20466;-66
2022/04/06 00:56:42;;;;;;;1.30;1.20;;;10.50;98.00;;;;;;6121460;23;20408;-66
2022/04/06 00:59:09;;;;;;;1.67;1.60;;;10.50;98.00;;;;;;6121149;23;20397;-66
2022/04/06 01:01:36;;;;;;;2.17;1.40;;;10.60;98.00;;;;;;6121283;23;20478;-67
2022/04/06 01:04:04;;;;;;;1.73;1.50;;;10.60;98.00;;;;;;6120825;23;20448;-66
2022/04/06 01:06:31;;;;;;;1.40;1.00;;;10.50;98.00;;;;;;6120866;23;20406;-66
2022/04/06 01:09:00;;;;;;;1.77;1.60;;;10.50;98.00;;;;;;6121216;23;20448;-66
2022/04/06 01:11:27;;;;;;;1.30;1.10;;;10.50;98.00;;;;;;6119066;23;20744;-66
2022/04/06 01:13:55;;;;;;;1.20;1.20;;;10.50;98.00;;;;;;6120920;23;20456;-66
2022/04/06 01:16:22;;;;;;;1.20;1.00;;;10.60;98.00;;;;;;6120932;23;20432;-66
2022/04/06 01:18:49;;;;;;;1.30;1.20;;;10.60;98.00;;;;;;6121132;23;20416;-67
2022/04/06 01:21:16;;;;;;;1.20;1.10;;;10.60;98.00;;;;;;6121178;23;20801;-66
2022/04/06 01:23:45;;;;;;;1.20;1.20;;;10.60;98.00;;;;;;6121231;23;20440;-66
2022/04/06 01:26:13;;;;;;;1.20;1.00;;;10.70;98.00;;;;;;6121271;23;20410;-66
2022/04/06 01:28:41;;;;;;;2.27;1.87;;;10.60;98.00;;;;;;6121177;23;20474;-66
2022/04/06 01:31:09;;;;;;;1.77;1.70;;;10.60;98.00;;;;;;6121326;23;20472;-66
2022/04/06 01:33:36;;;;;;;1.20;1.10;;;10.60;98.00;;;;;;6120883;23;20892;-66
2022/04/06 01:36:03;;;;;;;1.20;1.00;;;10.50;98.00;;;;;;6121081;23;20439;-67
2022/04/06 01:38:30;;;;;;;1.20;1.00;;;10.50;98.00;;;;;;6121074;23;20406;-67
2022/04/06 01:40:59;;;;;;;1.40;1.07;;;10.50;98.00;;;;;;6121186;23;20471;-67
2022/04/06 01:43:26;;;;;;;1.20;1.00;;;10.50;98.00;;;;;;6121258;23;20421;-66
2022/04/06 01:45:53;;;;;;;1.30;1.30;;;10.60;98.00;;;;;;6120660;23;20955;-66
2022/04/06 01:48:21;;;;;;;1.20;1.10;;;10.50;98.00;;;;;;6120827;23;20409;-66
2022/04/06 01:53:32;;;;;;;1.33;1.30;;;10.60;98.00;;;;;;6121009;23;20400;-66
2022/04/06 01:56:01;;;;;;;1.20;1.00;;;10.50;98.00;;;;;;6120728;23;20926;-66
2022/04/06 01:58:28;;;;;;;1.40;1.10;;;10.60;98.00;;;;;;6121220;23;20479;-66
2022/04/06 02:00:55;;;;;;;2.03;1.40;;;10.60;98.00;;;;;;6120430;23;20474;-66
2022/04/06 02:03:22;;;;;;;1.40;1.23;;;10.60;98.00;;;;;;6120493;23;20408;-66
2022/04/06 02:05:49;;;;;;;1.30;1.30;;;10.60;98.00;;;;;;6120769;23;20433;-66
2022/04/06 02:08:16;;;;;;;1.20;1.00;;;10.60;98.00;;;;;;6120897;23;20417;-66
2022/04/06 02:10:43;;;;;;;1.40;1.30;;;10.50;98.00;;;;;;6120719;23;20439;-66
2022/04/06 02:13:12;;;;;;;1.50;1.23;;;10.50;98.00;;;;;;6120949;23;20503;-66
2022/04/06 02:15:40;;;;;;;1.20;1.10;;;10.50;98.00;;;;;;6121005;23;20415;-67
2022/04/06 02:18:08;;;;;;;2.43;1.63;;;10.50;98.00;;;;;;6121069;23;20421;-66
2022/04/06 02:20:35;;;;;;;1.20;1.10;;;10.40;98.00;;;;;;6121038;23;20443;-66
2022/04/06 02:23:02;;;;;;;2.53;1.60;;;10.40;98.00;;;;;;6120683;23;20414;-67
2022/04/06 02:25:29;;;;;;;1.77;1.60;;;10.40;98.00;;;;;;6121252;23;20942;-67
2022/04/06 02:27:56;;;;;;;1.30;1.17;;;10.40;98.00;;;;;;6120738;23;20450;-66
2022/04/06 02:30:24;;;;;;;1.57;1.50;;;10.40;98.00;;;;;;6121098;23;20447;-67
2022/04/06 02:32:51;;;;;;;1.80;1.40;;;10.40;98.00;;;;;;6120648;23;20461;-66
2022/04/06 02:35:18;;;;;;;1.77;1.33;;;10.40;98.00;;;;;;6121042;23;20416;-67
2022/04/06 02:37:46;;;;;;;1.30;1.30;;;10.40;98.00;;;;;;6120491;23;20452;-66
2022/04/06 02:40:14;;;;;;;1.70;1.20;;;10.50;98.00;;;;;;6120374;23;20481;-66
2022/04/06 02:42:41;;;;;;;1.30;1.10;;;10.40;98.00;;;;;;6120245;23;20484;-66
2022/04/06 02:45:09;;;;;;;1.70;1.10;;;10.40;98.00;;;;;;6120580;23;20434;-66
2022/04/06 02:47:38;;;;;;;1.20;1.20;;;10.40;98.00;;;;;;6120587;23;20424;-67
2022/04/06 02:50:06;;;;;;;2.13;1.67;;;10.40;98.00;;;;;;6120700;23;20431;-66
2022/04/06 02:52:36;;;;;;;1.60;1.20;;;10.40;98.00;;;;;;6120487;23;20409;-66
2022/04/06 02:55:03;;;;;;;1.80;1.37;;;10.40;98.00;;;;;;6121049;23;20409;-66
2022/04/06 02:57:30;;;;;;;1.87;1.20;;;10.40;98.00;;;;;;6120543;23;20410;-66
2022/04/06 02:59:57;;;;;;;1.30;1.20;;;10.40;98.00;;;;;;6119935;23;20463;-66
2022/04/06 03:02:24;;;;;;;1.90;1.60;;;10.40;98.00;;;;;;6119369;23;20440;-66
2022/04/06 03:04:52;;;;;;;1.80;1.33;;;10.40;98.00;;;;;;6119946;23;20405;-66
2022/04/06 03:07:20;;;;;;;2.03;1.60;;;10.40;98.00;;;;;;6120477;23;20785;-66
2022/04/06 03:09:47;;;;;;;3.33;2.17;;;10.40;98.00;;;;;;6120362;23;20401;-67
2022/04/06 03:12:14;;;;;;;1.67;1.30;;;10.40;98.00;;;;;;6120545;23;20429;-66
2022/04/06 03:14:45;;;;;;;1.30;1.10;;;10.40;98.00;;;;;;6121845;23;20900;-66
2022/04/06 03:17:15;;;;;;;1.43;1.23;;;10.40;98.00;;;;;;6121602;23;21041;-66
2022/04/06 03:19:43;;;;;;;1.30;1.20;;;10.50;98.00;;;;;;6122079;23;20469;-66
2022/04/06 03:22:16;;;;;;;1.20;1.00;;;10.50;98.00;;;;;;6121649;23;20449;-67
2022/04/06 03:24:44;;;;;;;2.20;2.03;;;10.50;98.00;;;;;;6121771;23;20884;-67
2022/04/06 03:27:11;;;;;;;1.80;1.43;;;10.60;98.00;;;;;;6121796;23;20911;-67
2022/04/06 03:29:39;;;;;;;1.40;1.17;;;10.60;98.00;;;;;;6121755;23;20771;-67
2022/04/06 03:32:08;;;;;;;2.00;1.37;;;10.50;98.00;;;;;;6121542;23;20417;-67
2022/04/06 03:34:35;;;;;;;2.27;1.80;;;10.40;98.00;;;;;;6121173;23;20421;-66
2022/04/06 03:37:02;;;;;;;3.77;1.83;;;10.50;98.00;;;;;;6121822;23;20720;-66
2022/04/06 03:39:30;;;;;;;1.50;1.40;;;10.50;98.00;;;;;;6121310;23;20422;-67
2022/04/06 03:41:57;;;;;;;1.53;1.50;;;10.60;98.00;;;;;;6121615;23;20446;-66
2022/04/06 03:44:24;;;;;;;1.53;1.53;;;10.70;98.00;;;;;;6121478;23;20418;-66
2022/04/06 03:46:53;;;;;;;1.40;1.10;;;10.70;98.00;;;;;;6121801;23;20456;-66
2022/04/06 03:49:20;;;;;;;1.30;1.20;;;10.60;98.00;;;;;;6096062;23;20399;-66
2022/04/06 03:51:47;;;;;;;1.20;1.20;;;10.60;98.00;;;;;;6121392;23;20463;-66
2022/04/06 03:54:14;;;;;;;1.97;1.47;;;10.50;98.00;;;;;;6121309;23;20931;-67
2022/04/06 03:56:43;;;;;;;1.30;1.10;;;10.50;98.00;;;;;;6121347;23;20467;-67
2022/04/06 03:59:10;;;;;;;1.70;1.20;;;10.50;98.00;;;;;;6121791;23;20455;-66
2022/04/06 04:01:36;;;;;;;1.63;1.53;;;10.50;98.00;;;;;;6121611;23;20432;-66
2022/04/06 04:04:04;;;;;;;1.83;1.50;;;10.40;98.00;;;;;;6121626;23;20420;-65
2022/04/06 04:06:31;;;;;;;1.40;1.23;;;10.40;98.00;;;;;;6122085;23;20417;-66
2022/04/06 04:08:58;;;;;;;1.27;1.07;;;10.40;98.00;;;;;;6121303;23;20414;-67
2022/04/06 04:11:25;;;;;;;1.70;1.60;;;10.40;98.00;;;;;;6071899;23;20437;-66
2022/04/06 04:14:05;;;;;;;3.03;1.80;;;10.40;98.00;;;;;;6122066;23;20397;-66
2022/04/06 04:16:32;;;;;;;1.50;1.40;;;10.40;98.00;;;;;;6096091;23;20405;-67
2022/04/06 04:18:59;;;;;;;1.30;1.30;;;10.40;98.00;;;;;;6121604;23;20423;-67
2022/04/06 04:21:32;;;;;;;1.20;1.00;;;10.30;98.00;;;;;;6121139;23;20461;-67
2022/04/06 04:24:00;;;;;;;1.80;1.73;;;10.40;98.00;;;;;;6121261;23;20406;-66
2022/04/06 04:26:27;;;;;;;2.07;1.87;;;10.40;98.00;;;;;;6121127;23;20402;-67
2022/04/06 04:28:56;;;;;;;1.50;1.30;;;10.50;98.00;;;;;;6121075;23;20467;-66
2022/04/06 04:31:23;;;;;;;2.03;1.23;;;10.50;98.00;;;;;;6121445;23;20480;-66
2022/04/06 04:33:51;;;;;;;1.77;1.40;;;10.40;98.00;;;;;;6121421;23;20471;-66
2022/04/06 04:36:18;;;;;;;1.30;1.23;;;10.40;98.00;;;;;;6095769;23;20643;-66
2022/04/06 04:38:45;;;;;;;2.27;1.50;;;10.40;98.00;;;;;;6121413;23;20491;-67
2022/04/06 04:41:13;;;;;;;1.60;1.50;;;10.40;98.00;;;;;;6121253;23;20908;-66
2022/04/06 04:43:40;;;;;;;1.60;1.30;;;10.40;98.00;;;;;;6121402;23;20444;-66
2022/04/06 04:46:08;;;;;;;1.20;1.03;;;10.50;98.00;;;;;;6121632;23;20482;-67
2022/04/06 04:48:35;;;;;;;2.13;1.53;;;10.40;98.00;;;;;;6121497;23;20463;-67
2022/04/06 04:51:02;;;;;;;4.40;1.90;;;10.50;98.00;;;;;;6121051;23;20468;-66
2022/04/06 04:53:30;;;;;;;1.30;1.20;;;10.60;98.00;;;;;;6121418;23;20468;-66
2022/04/06 04:55:57;;;;;;;2.07;1.40;;;10.50;98.00;;;;;;6121250;23;20482;-67
2022/04/06 04:58:24;;;;;;;1.80;1.67;;;10.60;98.00;;;;;;6121152;23;20453;-66
2022/04/06 05:00:51;;;;;;;2.60;1.57;;;10.60;98.00;;;;;;6095878;23;20432;-66
2022/04/06 05:03:20;;;;;;;1.20;1.10;;;10.50;98.00;;;;;;6121413;23;20500;-67
2022/04/06 05:05:50;;;;;;;1.93;1.67;;;10.60;98.00;;;;;;6121847;23;20456;-66
2022/04/06 05:08:17;;;;;;;3.03;1.73;;;10.50;98.00;;;;;;6121091;23;20409;-66
2022/04/06 05:10:44;;;;;;;2.50;1.53;;;10.40;98.00;;;;;;6121293;23;20421;-67
2022/04/06 05:13:13;;;;;;;1.80;1.40;;;10.40;98.00;;;;;;6121353;23;20451;-66
2022/04/06 05:15:40;;;;;;;1.20;1.10;;;10.50;98.00;;;;;;6121000;23;20409;-66
2022/04/06 05:18:07;;;;;;;1.60;1.60;;;10.50;98.00;;;;;;6121336;23;20720;-66
2022/04/06 05:20:36;;;;;;;2.97;1.67;;;10.50;98.00;;;;;;6121257;23;20414;-66
2022/04/06 05:23:03;;;;;;;2.40;1.10;;;10.60;98.00;;;;;;6121244;23;20420;-66
2022/04/06 05:25:30;;;;;;;1.67;1.50;;;10.60;98.00;;;;;;6120976;23;20449;-66
2022/04/06 05:27:58;;;;;;;1.70;1.43;;;10.60;98.00;;;;;;6121282;23;20482;-66
2022/04/06 05:30:26;;;;;;;1.60;1.50;;;10.50;98.00;;;;;;6120954;23;20420;-67
2022/04/06 05:32:56;;;;;;;1.20;1.10;;;10.50;98.00;;;;;;6121264;23;20436;-67
2022/04/06 05:35:25;;;;;;;1.30;1.20;;;10.50;98.00;;;;;;6121632;23;20414;-66
2022/04/06 05:37:56;;;;;;;1.60;1.50;;;10.50;98.00;;;;;;6121270;23;20418;-66
2022/04/06 05:40:27;;;;;;;1.73;1.40;;;10.50;98.00;;;;;;6121339;23;20514;-66
2022/04/06 05:42:54;;;;;;;1.60;1.30;;;10.50;98.00;;;;;;6120700;23;20480;-66
2022/04/06 05:45:21;;;;;;;1.20;1.10;;;10.60;98.00;;;;;;6121427;23;20417;-67
2022/04/06 05:47:48;;;;;;;1.30;1.13;;;10.70;98.00;;;;;;6121397;23;20425;-67
2022/04/06 05:50:15;;;;;;;1.93;1.63;;;10.70;98.00;;;;;;6121114;23;20460;-66
2022/04/06 05:52:43;;;;;;;1.30;1.20;;;10.60;98.00;;;;;;6121322;23;20428;-66
2022/04/06 05:55:12;;;;;;;1.20;1.00;;;10.70;98.00;;;;;;6121503;23;20463;-67
2022/04/06 05:57:39;;;;;;;1.73;1.53;;;10.70;98.00;;;;;;6121506;23;20405;-66
2022/04/06 06:00:09;;;;;;;1.80;1.37;;;10.70;98.00;;;;;;6121602;23;20410;-66
2022/04/06 06:02:37;;;;;;;2.03;1.67;;;10.70;98.00;;;;;;6120598;23;20464;-66
2022/04/06 06:05:05;;;;;;;1.83;1.60;;;10.80;98.00;;;;;;6120941;23;20453;-67
2022/04/06 06:07:32;;;;;;;1.43;1.20;;;10.80;98.00;;;;;;6120932;23;20786;-67
2022/04/06 06:10:02;;;;;;;1.30;1.13;;;10.70;98.00;;;;;;6119294;23;20509;-67
2022/04/06 06:12:30;;;;;;;1.30;1.20;;;10.80;98.00;;;;;;6120679;23;20402;-67
2022/04/06 06:14:57;;;;;;;1.73;1.37;;;10.70;98.00;;;;;;6120907;23;20417;-66
2022/04/06 06:17:24;;;;;;;1.47;1.40;;;10.80;98.00;;;;;;6120968;23;20424;-67
2022/04/06 06:19:51;;;;;;;1.70;1.50;;;10.80;98.00;;;;;;6120977;23;20433;-66
2022/04/06 06:22:18;;;;;;;1.40;1.23;;;10.80;98.00;;;;;;6120769;23;20494;-67
2022/04/06 06:24:45;;;;;;;1.20;1.13;;;10.90;98.00;;;;;;6120925;23;20475;-66
2022/04/06 06:27:17;;;;;;;1.30;1.20;;;10.90;98.00;;;;;;6121007;23;20436;-67
2022/04/06 06:29:47;;;;;;;1.57;1.53;;;10.90;98.00;;;;;;6120847;23;20404;-67
2022/04/06 06:32:14;;;;;;;1.20;1.00;;;11.00;98.00;;;;;;6120823;23;20447;-66
2022/04/06 06:34:45;;;;;;;1.30;1.30;;;10.90;98.00;;;;;;6095359;23;20827;-66
2022/04/06 06:37:12;;;;;;;2.03;1.40;;;10.90;98.00;;;;;;6121145;23;20757;-65
2022/04/06 06:39:40;;;;;;;1.40;1.30;;;11.00;98.00;;;;;;6120924;23;20892;-67
2022/04/06 06:42:07;;;;;;;1.43;1.37;;;11.00;98.00;;;;;;6121096;23;20445;-66
2022/04/06 06:44:34;;;;;;;1.30;1.20;;;11.10;98.00;;;;;;6120964;23;20428;-66
2022/04/06 06:47:03;;;;;;;1.20;1.10;;;11.20;98.00;;;;;;6121251;23;20413;-67
2022/04/06 06:49:30;;;;;;;1.20;1.00;;;11.20;98.00;;;;;;6123465;23;20420;-67
2022/04/06 06:51:57;;;;;;;1.30;1.03;;;11.30;98.00;;;;;;6124226;23;20408;-66
2022/04/06 06:54:24;;;;;;;1.50;1.20;;;11.30;98.00;;;;;;6123849;23;20805;-67
2022/04/06 06:56:50;;;;;;;1.20;1.00;;;11.30;98.00;;;;;;6123394;23;20426;-66
2022/04/06 06:59:17;;;;;;;1.30;1.20;;;11.20;98.00;;;;;;6123741;23;20419;-66
2022/04/06 07:01:44;;;;;;;1.20;1.07;;;11.30;98.00;;;;;;6123627;23;20430;-66
2022/04/06 07:04:13;;;;;;;1.63;1.27;;;11.20;98.00;;;;;;6097887;23;20411;-66
2022/04/06 07:06:40;;;;;;;1.20;1.10;;;11.30;98.00;;;;;;6123738;23;20409;-67
2022/04/06 07:09:07;;;;;;;2.50;1.43;;;11.30;98.00;;;;;;6123549;23;20417;-65
2022/04/06 07:11:33;;;;;;;1.20;1.20;;;11.30;98.00;;;;;;6123624;23;20422;-66
2022/04/06 07:14:00;;;;;;;1.20;1.00;;;11.30;98.00;;;;;;6123974;23;20766;-66
2022/04/06 07:16:29;;;;;;;1.30;1.20;;;11.40;98.00;;;;;;6133316;23;20397;-66
2022/04/06 07:18:56;;;;;;;1.20;1.10;;;11.50;98.00;;;;;;6123730;23;20448;-66
2022/04/06 07:21:24;;;;;;;1.20;1.00;;;11.50;98.00;;;;;;6123363;23;20419;-66
2022/04/06 07:23:53;;;;;;;1.20;1.00;;;11.60;98.00;;;;;;6098071;23;20419;-67
2022/04/06 07:26:20;;;;;;;1.20;1.00;;;11.70;98.00;;;;;;6123750;23;20442;-67
2022/04/06 07:28:47;;;;;;;1.20;1.10;;;11.70;98.00;;;;;;6123711;23;20433;-66
2022/04/06 07:31:14;;;;;;;1.20;1.03;;;11.70;98.00;;;;;;6123738;23;20446;-66
2022/04/06 07:33:41;;;;;;;1.90;1.63;;;11.80;98.00;;;;;;6123749;23;20413;-67
2022/04/06 07:36:08;;;;;;;1.30;1.30;;;11.80;98.00;;;;;;6123548;23;20419;-66
2022/04/06 07:38:37;;;;;;;1.73;1.50;;;11.80;98.00;;;;;;6123364;23;20438;-66
2022/04/06 07:41:06;;;;;;;1.30;1.17;;;11.90;98.00;;;;;;6123422;23;20419;-67
2022/04/06 07:43:33;;;;;;;1.40;1.20;;;11.90;98.00;;;;;;6123688;23;20429;-67
2022/04/06 07:46:01;;;;;;;2.57;1.83;;;12.00;98.00;;;;;;6123325;23;20423;-67
2022/04/06 07:48:28;;;;;;;1.20;1.10;;;12.00;98.00;;;;;;6122511;23;20429;-67
2022/04/06 07:50:55;;;;;;;1.20;1.07;;;12.10;98.00;;;;;;6122373;23;20480;-67
2022/04/06 07:53:22;;;;;;;2.07;1.47;;;12.10;98.00;;;;;;6123188;23;20445;-66
2022/04/06 07:55:50;;;;;;;1.70;1.00;;;12.00;98.00;;;;;;6122979;23;20449;-66
2022/04/06 07:58:19;;;;;;;1.30;1.10;;;12.00;98.00;;;;;;6123254;23;20444;-66
2022/04/06 08:00:46;;;;;;;1.20;1.10;;;12.10;98.00;;;;;;6121233;23;20419;-67
2022/04/06 08:03:13;;;;;;;1.50;1.30;;;12.10;98.00;;;;;;6120782;23;20452;-66
2022/04/06 08:05:40;;;;;;;1.50;1.00;;;12.20;98.00;;;;;;6120974;23;20418;-65
2022/04/06 08:08:07;;;;;;;1.20;1.10;;;12.20;98.00;;;;;;6120972;23;20882;-67
2022/04/06 08:10:36;;;;;;;1.20;1.00;;;12.30;98.00;;;;;;6121399;23;20428;-65
2022/04/06 08:13:04;;;;;;;1.20;1.10;;;12.40;98.00;;;;;;6121069;23;20434;-66
2022/04/06 08:15:31;;;;;;;1.20;1.13;;;12.30;98.00;;;;;;6121517;23;20425;-66
2022/04/06 08:17:58;;;;;;;1.20;1.00;;;12.30;98.00;;;;;;6121077;23;20919;-65
2022/04/06 08:20:26;;;;;;;1.20;1.10;;;12.30;98.00;;;;;;6121463;23;20429;-66
2022/04/06 08:22:53;;;;;;;1.20;1.00;;;12.40;98.00;;;;;;6121323;23;21081;-65
2022/04/06 08:25:20;;;;;;;1.20;1.00;;;12.40;98.00;;;;;;6121268;23;20403;-66
2022/04/06 08:27:47;;;;;;;1.60;1.30;;;12.40;98.00;;;;;;6121680;23;20423;-66
2022/04/06 08:30:19;;;;;;;1.20;1.10;;;12.50;98.00;;;;;;6121710;23;20760;-66
2022/04/06 08:32:47;;;;;;;1.20;1.10;;;12.70;98.00;;;;;;6121813;23;20406;-66
2022/04/06 08:35:17;;;;;;;1.27;1.10;;;12.70;98.00;;;;;;6121321;23;20405;-66
2022/04/06 08:37:44;;;;;;;1.47;1.40;;;12.70;98.00;;;;;;6121642;23;20424;-67
2022/04/06 08:40:12;;;;;;;1.33;1.13;;;12.80;98.00;;;;;;6121107;23;20451;-66
2022/04/06 08:42:40;;;;;;;1.30;1.10;;;12.80;98.00;;;;;;6120842;23;20504;-65
2022/04/06 08:45:09;;;;;;;1.20;1.00;;;12.90;98.00;;;;;;6120749;23;20830;-67
2022/04/06 08:47:38;;;;;;;1.50;1.23;;;12.90;98.00;;;;;;6121022;23;20412;-66
2022/04/06 08:50:07;;;;;;;1.20;1.10;;;12.90;98.00;;;;;;6130707;23;20428;-65
2022/04/06 08:52:35;;;;;;;1.20;1.00;;;12.90;98.00;;;;;;6245846;22;20407;-66
2022/04/06 08:55:03;;;;;;;1.20;1.00;;;12.90;98.00;;;;;;6245236;22;20908;-67
2022/04/06 08:57:32;;;;;;;1.40;1.10;;;12.80;98.00;;;;;;6245478;22;20416;-66
2022/04/06 08:59:59;;;;;;;1.20;1.10;;;12.90;98.00;;;;;;6245295;22;21206;-66
2022/04/06 09:02:27;;;;;;;1.20;1.10;;;12.90;98.00;;;;;;6245611;22;20445;-67
2022/04/06 09:04:57;;;;;;;1.20;1.00;;;12.90;98.00;;;;;;6245560;22;20461;-67
2022/04/06 09:07:25;;;;;;;1.30;1.00;;;13.00;98.00;;;;;;6245956;22;20725;-66
2022/04/06 09:09:53;;;;;;;1.20;1.10;;;13.00;98.00;;;;;;6245530;22;20486;-67
2022/04/06 09:12:22;;;;;;;1.30;1.20;;;13.10;98.00;;;;;;6245751;22;20863;-66
2022/04/06 09:14:50;;;;;;;1.30;1.10;;;13.20;98.00;;;;;;6245556;22;20729;-66
2022/04/06 09:17:21;;;;;;;1.20;1.00;;;13.30;98.00;;;;;;6245324;22;20456;-68
2022/04/06 09:19:50;;;;;;;1.20;1.07;;;13.40;98.00;;;;;;6245663;22;20730;-66
2022/04/06 09:22:19;;;;;;;1.20;1.10;;;13.60;98.00;;;;;;6245225;22;20439;-66
2022/04/06 09:24:57;;;;;;;1.50;1.10;;;13.60;98.00;;;;;;6245668;22;20477;-66
2022/04/06 09:27:30;;;;;;;1.50;1.13;;;13.60;98.00;;;;;;6245326;22;20554;-67
2022/04/06 09:29:57;;;;;;;1.37;1.10;;;13.70;98.00;;;;;;6244697;22;20428;-67
2022/04/06 09:32:25;;;;;;;1.20;1.00;;;13.70;98.00;;;;;;6245476;22;20427;-66
2022/04/06 09:34:52;;;;;;;1.20;1.10;;;13.80;98.00;;;;;;6244808;22;20412;-66
2022/04/06 09:37:24;;;;;;;1.50;1.10;;;13.90;98.00;;;;;;6245336;22;20401;-67
2022/04/06 09:39:51;;;;;;;1.20;1.10;;;14.00;98.00;;;;;;6244983;22;20417;-66
2022/04/06 09:42:22;;;;;;;1.20;1.00;;;13.90;98.00;;;;;;6244907;22;20913;-67
2022/04/06 09:47:42;;;;;;;2.40;2.20;;;14.30;98.00;;;;;;6254094;23;20417;-66
2022/04/06 09:50:20;;;;;;;1.20;1.00;;;14.50;98.00;;;;;;6206968;22;20432;-67
2022/04/06 09:52:51;;;;;;;1.50;1.27;;;14.80;98.00;;;;;;6119934;23;20470;-66
2022/04/06 09:55:19;;;;;;;2.43;1.47;;;14.90;98.00;;;;;;6094390;23;20962;-66
2022/04/06 09:57:50;;;;;;;1.20;1.10;;;15.00;98.00;;;;;;6119539;23;20894;-67
2022/04/06 10:00:19;;;;;;;1.20;1.00;;;15.10;98.00;;;;;;6094560;23;20420;-67
2022/04/06 10:02:48;;;;;;;1.20;0.97;;;15.10;98.00;;;;;;6119807;23;20519;-67
2022/04/06 10:05:18;;;;;;;1.20;1.00;;;14.80;98.00;;;;;;6119880;23;20973;-69
2022/04/06 10:07:46;;;;;;;1.37;1.20;;;14.50;98.00;;;;;;6119502;23;20452;-67
2022/04/06 10:10:14;;;;;;;1.20;1.13;;;14.40;98.00;;;;;;6120021;23;20417;-67
2022/04/06 10:12:42;;;;;;;1.40;1.10;;;14.40;98.00;;;;;;6120321;23;20401;-67
2022/04/06 10:15:09;;;;;;;1.20;1.00;;;14.50;98.00;;;;;;6119916;23;20496;-66
2022/04/06 10:17:36;;;;;;;1.20;1.10;;;14.60;98.00;;;;;;6119794;23;20460;-66
2022/04/06 10:20:12;;;;;;;1.20;1.00;;;14.80;98.00;;;;;;6120166;23;20789;-65
2022/04/06 10:22:48;;;;;;;1.20;1.00;;;14.90;98.00;;;;;;6118817;23;21142;-67
2022/04/06 10:25:22;;;;;;;1.20;1.00;;;15.00;98.00;;;;;;6119507;23;20471;-68
2022/04/06 10:27:54;;;;;;;1.33;1.00;;;15.10;98.00;;;;;;6119490;23;20444;-68
2022/04/06 10:30:23;;;;;;;1.50;1.20;;;15.00;98.00;;;;;;6119682;23;20407;-66
2022/04/06 10:32:51;;;;;;;1.23;1.13;;;15.10;98.00;;;;;;6119503;23;20919;-66
2022/04/06 10:35:20;;;;;;;1.20;1.07;;;14.90;98.00;;;;;;6119746;23;20401;-66
2022/04/06 10:38:12;;;;;;;1.20;1.10;;;15.00;98.00;;;;;;6119623;23;20420;-66
2022/04/06 10:41:06;;;;;;;1.20;1.00;;;15.10;98.00;;;;;;6093789;23;20428;-68
2022/04/06 10:43:52;;;;;;;1.40;1.10;;;15.20;98.00;;;;;;6119758;23;20440;-67
2022/04/06 10:46:34;;;;;;;1.20;1.00;;;15.20;98.00;;;;;;6093813;23;20432;-67
2022/04/06 10:49:12;;;;;;;1.20;1.00;;;15.00;98.00;;;;;;6119323;23;20876;-66
2022/04/06 10:51:42;;;;;;;1.33;1.07;;;14.90;98.00;;;;;;6119579;23;20461;-66
2022/04/06 10:54:42;;;;;;;2.03;1.10;;;15.20;98.00;;;;;;6119764;23;20420;-67
2022/04/06 10:57:12;;;;;;;1.20;1.00;;;15.20;97.20;;;;;;6001366;23;20949;-66
2022/04/06 10:59:39;;;;;;;1.20;1.10;;;15.30;97.80;;;;;;6000348;23;20437;-66
2022/04/06 11:02:24;;;;;;;1.47;1.43;;;15.50;97.30;;;;;;6054967;23;20417;-67
2022/04/06 11:04:52;;;;;;;1.20;1.00;;;15.60;98.00;;;;;;6120089;23;20413;-66
2022/04/06 11:10:06;;;;;;;1.20;1.00;;;15.60;96.20;;;;;;6119821;23;20414;-66
2022/04/06 11:10:15;;;;;;;1.20;1.00;;;15.50;95.30;;;;;;6098550;23;20415;-66
2022/04/06 11:15:53;;;;;;;1.20;1.00;;;15.60;96.90;;;;;;5148260;27;20546;-67
2022/04/06 11:18:45;;;;;;;1.20;1.10;;;15.90;94.30;;;;;;5126787;28;20480;-66
2022/04/06 11:21:13;;;;;;;1.20;1.10;;;16.60;94.90;;;;;;5126781;27;20461;-68
2022/04/06 11:23:40;;;;;;;1.20;1.10;;;16.70;92.50;;;;;;5126997;28;20488;-68
2022/04/06 11:26:07;;;;;;;1.20;1.00;;;16.70;92.70;;;;;;5127392;28;21169;-67
2022/04/06 11:28:34;;;;;;;1.57;1.13;;;16.70;91.50;;;;;;5127121;27;20476;-67
2022/04/06 11:31:04;;;;;;;1.20;1.00;;;16.50;92.50;;;;;;5127125;27;20502;-68
2022/04/06 11:33:39;;;;;;;1.20;1.10;;;16.30;92.60;;;;;;5127010;28;20463;-68
2022/04/06 11:36:14;;;;;;;1.20;1.20;;;16.10;93.50;;;;;;5127304;28;20470;-68
2022/04/06 11:38:41;;;;;;;1.20;1.10;;;16.10;92.70;;;;;;5125859;28;20486;-67
2022/04/06 11:41:08;;;;;;;1.20;1.10;;;16.40;92.20;;;;;;5127321;28;20549;-68
2022/04/06 11:43:40;;;;;;;1.20;1.10;;;16.50;93.10;;;;;;5127165;28;20449;-67
2022/04/06 11:46:08;;;;;;;1.50;1.10;;;16.50;92.10;;;;;;5115977;28;20858;-70
2022/04/06 11:48:43;;;;;;;1.20;1.10;;;16.60;90.90;;;;;;5127142;27;20461;-69
2022/04/06 11:51:11;;;;;;;1.20;1.10;;;16.70;92.10;;;;;;5124109;28;20995;-69
2022/04/06 11:53:38;;;;;;;1.20;1.00;;;17.20;89.90;;;;;;5126386;28;21055;-68
2022/04/06 11:56:05;;;;;;;1.20;1.10;;;17.70;89.50;;;;;;5126595;28;20584;-68
2022/04/06 11:58:33;;;;;;;1.20;1.00;;;17.70;87.80;;;;;;5126618;27;20457;-69
2022/04/06 12:01:02;;;;;;;1.40;1.17;;;18.00;89.10;;;;;;5126698;28;20485;-69
2022/04/06 12:03:31;;;;;;;1.20;1.07;;;17.90;88.10;;;;;;5126321;27;20541;-69
2022/04/06 12:05:59;;;;;;;1.60;1.10;;;17.80;89.70;;;;;;5126475;28;20545;-69
2022/04/06 12:08:26;;;;;;;1.20;1.10;;;18.20;87.50;;;;;;5126389;27;21040;-67
2022/04/06 12:10:56;;;;;;;1.60;1.20;;;18.70;86.40;;;;;;5126414;28;20511;-69
2022/04/06 12:13:24;;;;;;;1.20;1.10;;;18.80;84.50;;;;;;5125939;28;20458;-69
2022/04/06 12:15:54;;;;;;;1.20;1.10;;;18.90;85.40;;;;;;5126172;28;20850;-69
2022/04/06 12:18:23;;;;;;;1.30;1.30;;;19.30;85.60;;;;;;5126031;28;20456;-69
2022/04/06 12:21:20;;;;;;;1.30;1.23;;;19.10;86.10;;;;;;5126088;28;20485;-68
2022/04/06 12:23:48;;;;;;;1.20;1.10;;;19.10;85.50;;;;;;5126086;28;20446;-69
2022/04/06 12:26:15;;;;;;;1.30;1.20;;;18.90;85.60;;;;;;5116350;28;20443;-69
2022/04/06 12:28:47;;;;;;;1.20;1.10;;;18.40;85.80;;;;;;5112022;28;20534;-70
2022/04/06 12:31:15;;;;;;;1.40;1.20;;;18.00;86.10;;;;;;5112236;28;20479;-70
2022/04/06 12:33:44;;;;;;;1.20;1.07;;;17.90;86.60;;;;;;5111873;28;20553;-70
2022/04/06 12:36:15;;;;;;;1.20;1.03;;;17.90;87.60;;;;;;5112028;28;21019;-70
2022/04/06 12:38:44;;;;;;;1.20;1.00;;;18.40;88.10;;;;;;5112134;28;20504;-70
2022/04/06 12:41:13;;;;;;;1.30;1.10;;;18.60;85.20;;;;;;5112072;28;21169;-70
2022/04/06 12:43:41;;;;;;;1.20;1.10;;;19.10;85.00;;;;;;5111965;28;20805;-70
2022/04/06 12:46:08;;;;;;;1.50;1.30;;;19.50;84.50;;;;;;5110994;28;21016;-70
2022/04/06 12:48:35;;;;;;;1.20;1.00;;;19.80;83.00;;;;;;5110709;28;20479;-70
2022/04/06 12:51:21;;;;;;;1.50;1.10;;;20.20;82.00;;;;;;5109978;28;21095;-70
2022/04/06 12:53:49;;;;;;;1.93;1.20;;;20.40;81.00;;;;;;5111809;28;20962;-70
2022/04/06 12:56:21;;;;;;;1.20;1.07;;;20.70;80.40;;;;;;5112081;28;20470;-70
2022/04/06 12:59:03;;;;;;;1.70;1.50;;;20.50;80.50;;;;;;5111680;28;20454;-70
2022/04/06 13:01:30;;;;;;;1.20;1.10;;;20.10;82.10;;;;;;5103470;28;20491;-70
2022/04/06 13:03:58;;;;;;;1.20;1.10;;;20.20;81.00;;;;;;5103232;28;20455;-71
2022/04/06 13:06:26;;;;;;;1.20;1.10;;;20.40;80.00;;;;;;5111691;28;21008;-71